createdAt,value
2019-03-17T00:00:29.598Z,3.25
2019-03-17T00:01:06.579Z,2.92
2019-03-17T00:01:39.104Z,3.70
2019-03-17T00:02:12.048Z,3.45
2019-03-17T00:02:44.889Z,3.40
2019-03-17T00:03:17.368Z,3.30
2019-03-17T00:03:50.255Z,2.92
2019-03-17T00:04:31.499Z,2.92
2019-03-17T00:04:57.445Z,3.30
2019-03-17T00:05:29.908Z,3.67
2019-03-17T00:06:02.422Z,3.20
2019-03-17T00:06:34.914Z,3.17
2019-03-17T00:07:07.374Z,3.17
2019-03-17T00:07:40.612Z,3.40
2019-03-17T00:08:13.104Z,3.25
2019-03-17T00:08:45.584Z,3.08
2019-03-17T00:09:18.104Z,3.33
2019-03-17T00:09:50.571Z,3.00
2019-03-17T00:10:23.383Z,3.30
2019-03-17T00:10:55.888Z,2.90
2019-03-17T00:11:28.372Z,3.15
2019-03-17T00:12:01.146Z,3.47
2019-03-17T00:12:33.628Z,3.80
2019-03-17T00:13:06.119Z,4.17
2019-03-17T00:13:38.918Z,4.30
2019-03-17T00:14:11.400Z,3.40
2019-03-17T00:14:43.906Z,3.25
2019-03-17T00:15:16.403Z,3.87
2019-03-17T00:15:48.900Z,4.65
2019-03-17T00:16:21.386Z,4.05
2019-03-17T00:16:53.866Z,3.27
2019-03-17T00:17:26.363Z,3.60
2019-03-17T00:17:58.827Z,3.35
2019-03-17T00:18:31.612Z,2.65
2019-03-17T00:19:04.109Z,2.60
2019-03-17T00:19:37.356Z,3.20
2019-03-17T00:20:09.888Z,2.62
2019-03-17T00:20:42.371Z,3.25
2019-03-17T00:21:14.871Z,3.17
2019-03-17T00:21:47.709Z,3.60
2019-03-17T00:22:20.480Z,3.08
2019-03-17T00:22:52.950Z,3.22
2019-03-17T00:23:25.740Z,3.00
2019-03-17T00:23:59.219Z,3.08
2019-03-17T00:24:31.700Z,3.20
2019-03-17T00:25:09.454Z,2.80
2019-03-17T00:25:38.838Z,2.80
2019-03-17T00:26:11.322Z,3.45
2019-03-17T00:26:43.810Z,2.70
2019-03-17T00:27:16.295Z,3.02
2019-03-17T00:27:49.105Z,3.10
2019-03-17T00:28:22.146Z,3.00
2019-03-17T00:28:54.986Z,3.00
2019-03-17T00:29:27.474Z,2.80
2019-03-17T00:29:59.951Z,2.87
2019-03-17T00:30:32.452Z,3.40
2019-03-17T00:31:05.791Z,3.00
2019-03-17T00:31:38.340Z,2.60
2019-03-17T00:32:11.132Z,3.25
2019-03-17T00:32:44.010Z,2.80
2019-03-17T00:33:16.646Z,3.10
2019-03-17T00:33:50.067Z,3.67
2019-03-17T00:34:22.938Z,2.90
2019-03-17T00:34:55.408Z,2.83
2019-03-17T00:35:27.884Z,2.80
2019-03-17T00:36:00.474Z,2.90
2019-03-17T00:36:32.987Z,3.20
2019-03-17T00:37:05.454Z,3.08
2019-03-17T00:37:37.935Z,3.52
2019-03-17T00:38:10.770Z,3.27
2019-03-17T00:38:43.251Z,3.10
2019-03-17T00:39:16.160Z,3.25
2019-03-17T00:39:48.974Z,2.50
2019-03-17T00:40:21.638Z,2.72
2019-03-17T00:40:54.120Z,3.22
2019-03-17T00:41:27.258Z,2.90
2019-03-17T00:42:00.640Z,3.27
2019-03-17T00:42:33.203Z,2.80
2019-03-17T00:43:05.971Z,2.85
2019-03-17T00:43:38.453Z,3.30
2019-03-17T00:44:10.940Z,3.30
2019-03-17T00:44:44.904Z,2.90
2019-03-17T00:45:17.663Z,3.30
2019-03-17T00:45:50.432Z,2.80
2019-03-17T00:46:22.976Z,3.25
2019-03-17T00:46:55.500Z,3.00
2019-03-17T00:47:28.028Z,3.22
2019-03-17T00:48:00.900Z,2.72
2019-03-17T00:48:33.484Z,3.10
2019-03-17T00:49:05.967Z,2.85
2019-03-17T00:49:38.512Z,2.80
2019-03-17T00:50:11.076Z,3.17
2019-03-17T00:50:43.552Z,2.87
2019-03-17T00:51:16.045Z,3.22
2019-03-17T00:51:48.826Z,2.70
2019-03-17T00:52:21.626Z,2.90
2019-03-17T00:52:54.138Z,3.05
2019-03-17T00:53:26.631Z,3.17
2019-03-17T00:53:59.128Z,2.98
2019-03-17T00:54:31.621Z,3.35
2019-03-17T00:55:04.592Z,2.70
2019-03-17T00:55:37.076Z,2.65
2019-03-17T00:56:09.555Z,3.35
2019-03-17T00:56:42.048Z,2.98
2019-03-17T00:57:14.528Z,3.05
2019-03-17T00:57:47.168Z,3.37
2019-03-17T00:58:19.678Z,3.05
2019-03-17T00:58:52.232Z,2.70
2019-03-17T00:59:24.722Z,3.30
2019-03-17T00:59:58.637Z,2.98
2019-03-17T01:00:32.092Z,3.80
2019-03-17T01:01:04.879Z,2.95
2019-03-17T01:01:37.377Z,3.00
2019-03-17T01:02:10.482Z,2.60
2019-03-17T01:02:43.404Z,3.37
2019-03-17T01:03:16.170Z,2.90
2019-03-17T01:03:49.048Z,2.70
2019-03-17T01:04:22.187Z,3.05
2019-03-17T01:04:56.383Z,3.22
2019-03-17T01:05:31.758Z,2.70
2019-03-17T01:06:04.214Z,3.00
2019-03-17T01:06:38.265Z,2.75
2019-03-17T01:07:10.760Z,2.50
2019-03-17T01:07:43.538Z,3.12
2019-03-17T01:08:16.027Z,2.98
2019-03-17T01:08:48.628Z,2.90
2019-03-17T01:09:21.476Z,3.20
2019-03-17T01:09:54.031Z,3.00
2019-03-17T01:10:26.520Z,2.60
2019-03-17T01:10:59.006Z,3.25
2019-03-17T01:11:31.892Z,3.15
2019-03-17T01:12:04.358Z,3.30
2019-03-17T01:12:36.885Z,3.17
2019-03-17T01:13:10.615Z,2.92
2019-03-17T01:13:43.189Z,2.87
2019-03-17T01:14:15.666Z,3.15
2019-03-17T01:14:48.168Z,3.25
2019-03-17T01:15:20.668Z,3.00
2019-03-17T01:15:53.903Z,3.00
2019-03-17T01:16:26.381Z,3.20
2019-03-17T01:16:58.866Z,3.35
2019-03-17T01:17:31.701Z,2.87
2019-03-17T01:18:04.182Z,3.50
2019-03-17T01:18:37.201Z,3.15
2019-03-17T01:19:10.008Z,3.70
2019-03-17T01:19:42.488Z,2.85
2019-03-17T01:20:15.449Z,3.30
2019-03-17T01:20:47.982Z,3.27
2019-03-17T01:21:20.475Z,3.15
2019-03-17T01:21:53.263Z,3.10
2019-03-17T01:22:26.121Z,3.08
2019-03-17T01:22:58.615Z,3.98
2019-03-17T01:23:31.433Z,3.65
2019-03-17T01:24:04.308Z,3.47
2019-03-17T01:24:36.782Z,3.10
2019-03-17T01:25:09.335Z,3.00
2019-03-17T01:25:42.516Z,3.15
2019-03-17T01:26:15.386Z,3.05
2019-03-17T01:26:47.880Z,3.60
2019-03-17T01:27:20.953Z,3.67
2019-03-17T01:27:53.449Z,2.95
2019-03-17T01:28:25.950Z,3.35
2019-03-17T01:28:58.466Z,3.87
2019-03-17T01:29:30.947Z,3.52
2019-03-17T01:30:04.375Z,3.80
2019-03-17T01:30:36.843Z,3.47
2019-03-17T01:31:09.358Z,3.00
2019-03-17T01:31:41.909Z,3.50
2019-03-17T01:32:14.375Z,2.80
2019-03-17T01:32:47.946Z,3.42
2019-03-17T01:33:20.430Z,3.60
2019-03-17T01:33:53.206Z,3.67
2019-03-17T01:34:25.974Z,2.90
2019-03-17T01:35:08.647Z,3.30
2019-03-17T01:35:33.136Z,3.60
2019-03-17T01:36:05.922Z,3.15
2019-03-17T01:36:38.751Z,3.10
2019-03-17T01:37:11.244Z,3.30
2019-03-17T01:37:44.023Z,3.92
2019-03-17T01:38:16.966Z,3.20
2019-03-17T01:38:49.442Z,2.98
2019-03-17T01:39:22.223Z,3.50
2019-03-17T01:39:54.705Z,3.20
2019-03-17T01:40:27.193Z,3.45
2019-03-17T01:40:59.681Z,3.60
2019-03-17T01:41:32.164Z,4.00
2019-03-17T01:42:05.046Z,3.47
2019-03-17T01:42:37.987Z,3.72
2019-03-17T01:43:11.282Z,3.80
2019-03-17T01:43:43.798Z,3.50
2019-03-17T01:44:16.656Z,3.10
2019-03-17T01:44:49.198Z,3.42
2019-03-17T01:45:21.976Z,3.60
2019-03-17T01:45:56.748Z,3.40
2019-03-17T01:46:29.728Z,3.83
2019-03-17T01:47:02.530Z,3.67
2019-03-17T01:47:35.035Z,3.87
2019-03-17T01:48:07.766Z,3.83
2019-03-17T01:48:40.261Z,3.60
2019-03-17T01:49:13.055Z,3.52
2019-03-17T01:49:45.546Z,3.85
2019-03-17T01:50:18.062Z,3.77
2019-03-17T01:50:50.905Z,3.37
2019-03-17T01:51:23.397Z,4.15
2019-03-17T01:51:56.503Z,4.00
2019-03-17T01:52:29.284Z,4.15
2019-03-17T01:53:01.800Z,3.95
2019-03-17T01:53:34.284Z,3.50
2019-03-17T01:54:06.818Z,3.35
2019-03-17T01:54:39.655Z,3.35
2019-03-17T01:55:12.148Z,3.40
2019-03-17T01:55:45.232Z,4.05
2019-03-17T01:56:17.710Z,3.40
2019-03-17T01:56:50.278Z,3.35
2019-03-17T01:57:24.329Z,3.80
2019-03-17T01:57:56.756Z,3.45
2019-03-17T01:58:29.266Z,3.58
2019-03-17T01:59:02.502Z,2.83
2019-03-17T01:59:35.362Z,3.20
2019-03-17T02:00:08.278Z,3.60
2019-03-17T02:00:40.766Z,3.55
2019-03-17T02:01:13.256Z,3.37
2019-03-17T02:01:45.742Z,3.45
2019-03-17T02:02:18.223Z,3.20
2019-03-17T02:02:51.367Z,3.60
2019-03-17T02:03:25.265Z,3.60
2019-03-17T02:03:58.081Z,3.70
2019-03-17T02:04:31.013Z,3.77
2019-03-17T02:05:05.614Z,3.87
2019-03-17T02:05:38.475Z,3.80
2019-03-17T02:06:11.863Z,3.52
2019-03-17T02:06:45.071Z,3.60
2019-03-17T02:07:17.827Z,3.45
2019-03-17T02:07:50.588Z,3.10
2019-03-17T02:08:23.055Z,3.50
2019-03-17T02:08:55.530Z,3.20
2019-03-17T02:09:28.038Z,4.10
2019-03-17T02:10:00.823Z,3.67
2019-03-17T02:10:33.292Z,3.37
2019-03-17T02:11:06.264Z,3.35
2019-03-17T02:11:38.882Z,3.33
2019-03-17T02:12:12.108Z,3.45
2019-03-17T02:12:44.862Z,3.90
2019-03-17T02:13:17.343Z,3.60
2019-03-17T02:13:50.215Z,3.92
2019-03-17T02:14:23.021Z,3.70
2019-03-17T02:14:55.857Z,3.20
2019-03-17T02:15:28.340Z,3.60
2019-03-17T02:16:00.826Z,3.15
2019-03-17T02:16:33.842Z,3.30
2019-03-17T02:17:06.336Z,3.90
2019-03-17T02:17:38.813Z,3.15
2019-03-17T02:18:11.320Z,3.65
2019-03-17T02:18:43.778Z,3.17
2019-03-17T02:19:16.268Z,3.70
2019-03-17T02:19:49.033Z,3.90
2019-03-17T02:20:22.706Z,3.15
2019-03-17T02:20:56.190Z,3.70
2019-03-17T02:21:28.692Z,3.50
2019-03-17T02:22:01.193Z,2.98
2019-03-17T02:22:34.125Z,3.05
2019-03-17T02:23:06.620Z,3.17
2019-03-17T02:23:39.096Z,2.90
2019-03-17T02:24:11.940Z,3.22
2019-03-17T02:24:44.419Z,3.25
2019-03-17T02:25:16.914Z,3.25
2019-03-17T02:25:49.422Z,3.10
2019-03-17T02:26:22.590Z,2.55
2019-03-17T02:26:55.452Z,2.90
2019-03-17T02:27:27.934Z,3.55
2019-03-17T02:28:01.368Z,3.45
2019-03-17T02:28:35.413Z,3.10
2019-03-17T02:29:08.640Z,3.52
2019-03-17T02:29:43.834Z,3.60
2019-03-17T02:30:17.690Z,3.02
2019-03-17T02:30:50.674Z,3.10
2019-03-17T02:31:23.542Z,4.33
2019-03-17T02:31:56.024Z,4.08
2019-03-17T02:32:28.509Z,3.08
2019-03-17T02:33:01.395Z,3.70
2019-03-17T02:33:33.885Z,3.80
2019-03-17T02:34:06.362Z,3.22
2019-03-17T02:34:39.018Z,3.60
2019-03-17T02:35:11.760Z,3.22
2019-03-17T02:35:44.245Z,3.05
2019-03-17T02:36:18.824Z,2.52
2019-03-17T02:36:52.461Z,3.40
2019-03-17T02:37:25.978Z,3.08
2019-03-17T02:37:58.509Z,3.00
2019-03-17T02:38:31.388Z,3.50
2019-03-17T02:39:05.418Z,3.33
2019-03-17T02:39:37.903Z,2.83
2019-03-17T02:40:10.681Z,3.30
2019-03-17T02:40:43.538Z,2.75
2019-03-17T02:41:16.013Z,3.22
2019-03-17T02:41:49.278Z,2.92
2019-03-17T02:42:21.822Z,3.40
2019-03-17T02:42:55.169Z,3.22
2019-03-17T02:43:27.681Z,3.30
2019-03-17T02:44:00.169Z,3.15
2019-03-17T02:44:32.862Z,3.70
2019-03-17T02:45:06.327Z,2.75
2019-03-17T02:45:38.934Z,3.45
2019-03-17T02:46:11.733Z,3.00
2019-03-17T02:46:44.203Z,2.83
2019-03-17T02:47:17.060Z,3.12
2019-03-17T02:47:49.849Z,3.20
2019-03-17T02:48:22.341Z,3.33
2019-03-17T02:48:54.820Z,2.90
2019-03-17T02:49:28.033Z,2.95
2019-03-17T02:50:00.784Z,3.35
2019-03-17T02:50:33.261Z,2.47
2019-03-17T02:51:06.099Z,2.52
2019-03-17T02:51:38.876Z,3.27
2019-03-17T02:52:11.354Z,3.22
2019-03-17T02:52:44.210Z,2.55
2019-03-17T02:53:17.121Z,3.40
2019-03-17T02:53:49.966Z,2.80
2019-03-17T02:54:22.552Z,2.90
2019-03-17T02:54:55.023Z,2.80
2019-03-17T02:55:27.514Z,3.00
2019-03-17T02:55:59.990Z,2.70
2019-03-17T02:56:32.467Z,2.75
2019-03-17T02:57:05.247Z,3.10
2019-03-17T02:57:38.024Z,2.90
2019-03-17T02:58:10.790Z,2.70
2019-03-17T02:58:43.316Z,3.33
2019-03-17T02:59:15.921Z,2.90
2019-03-17T02:59:48.424Z,3.42
2019-03-17T03:00:20.907Z,3.45
2019-03-17T03:00:53.614Z,3.10
2019-03-17T03:01:26.579Z,3.35
2019-03-17T03:01:59.059Z,3.02
2019-03-17T03:02:31.944Z,2.60
2019-03-17T03:03:04.777Z,2.58
2019-03-17T03:03:37.260Z,2.90
2019-03-17T03:04:10.734Z,2.50
2019-03-17T03:04:43.483Z,3.20
2019-03-17T03:05:15.974Z,2.90
2019-03-17T03:05:55.419Z,2.60
2019-03-17T03:06:22.869Z,2.40
2019-03-17T03:06:55.358Z,2.60
2019-03-17T03:07:27.844Z,2.30
2019-03-17T03:08:00.306Z,2.70
2019-03-17T03:08:32.795Z,2.58
2019-03-17T03:09:06.291Z,2.42
2019-03-17T03:09:38.822Z,2.77
2019-03-17T03:10:11.305Z,3.20
2019-03-17T03:10:43.788Z,3.12
2019-03-17T03:11:16.598Z,2.83
2019-03-17T03:11:49.072Z,3.05
2019-03-17T03:12:21.554Z,2.37
2019-03-17T03:12:54.401Z,2.98
2019-03-17T03:13:26.875Z,2.60
2019-03-17T03:13:59.360Z,2.65
2019-03-17T03:14:32.197Z,2.90
2019-03-17T03:15:05.050Z,2.70
2019-03-17T03:15:38.024Z,2.83
2019-03-17T03:16:11.235Z,2.60
2019-03-17T03:16:43.715Z,2.98
2019-03-17T03:17:16.192Z,2.50
2019-03-17T03:17:48.666Z,2.98
2019-03-17T03:18:21.159Z,2.87
2019-03-17T03:18:54.106Z,2.52
2019-03-17T03:19:27.448Z,3.00
2019-03-17T03:20:00.688Z,2.40
2019-03-17T03:20:33.278Z,2.02
2019-03-17T03:21:05.764Z,2.40
2019-03-17T03:21:38.578Z,2.45
2019-03-17T03:22:11.411Z,2.20
2019-03-17T03:22:43.909Z,2.77
2019-03-17T03:23:16.547Z,3.25
2019-03-17T03:23:49.034Z,3.08
2019-03-17T03:24:21.843Z,2.90
2019-03-17T03:24:54.683Z,2.50
2019-03-17T03:25:27.164Z,2.77
2019-03-17T03:26:00.107Z,2.55
2019-03-17T03:26:33.505Z,2.50
2019-03-17T03:27:05.983Z,2.80
2019-03-17T03:27:38.483Z,2.58
2019-03-17T03:28:10.964Z,3.10
2019-03-17T03:28:43.458Z,2.45
2019-03-17T03:29:15.957Z,3.33
2019-03-17T03:29:48.889Z,2.30
2019-03-17T03:30:21.417Z,2.77
2019-03-17T03:30:53.910Z,2.85
2019-03-17T03:31:26.403Z,2.92
2019-03-17T03:31:58.892Z,2.72
2019-03-17T03:32:31.355Z,2.52
2019-03-17T03:33:03.827Z,3.00
2019-03-17T03:33:36.624Z,2.30
2019-03-17T03:34:09.107Z,2.90
2019-03-17T03:34:41.711Z,2.10
2019-03-17T03:35:14.194Z,2.30
2019-03-17T03:35:46.972Z,2.83
2019-03-17T03:36:19.446Z,2.80
2019-03-17T03:36:52.305Z,2.50
2019-03-17T03:37:24.902Z,2.30
2019-03-17T03:37:58.047Z,2.98
2019-03-17T03:38:31.656Z,2.90
2019-03-17T03:39:05.999Z,2.80
2019-03-17T03:39:38.492Z,2.15
2019-03-17T03:40:10.967Z,2.52
2019-03-17T03:40:43.448Z,2.60
2019-03-17T03:41:15.924Z,3.08
2019-03-17T03:41:48.403Z,2.70
2019-03-17T03:42:20.920Z,2.47
2019-03-17T03:42:53.445Z,2.42
2019-03-17T03:43:26.202Z,2.52
2019-03-17T03:43:59.509Z,2.52
2019-03-17T03:44:32.306Z,2.40
2019-03-17T03:45:05.491Z,2.35
2019-03-17T03:45:38.885Z,2.58
2019-03-17T03:46:12.300Z,2.35
2019-03-17T03:46:45.143Z,3.35
2019-03-17T03:47:17.973Z,2.58
2019-03-17T03:47:50.475Z,2.20
2019-03-17T03:48:23.339Z,2.90
2019-03-17T03:48:56.117Z,2.95
2019-03-17T03:49:28.633Z,2.50
2019-03-17T03:50:01.102Z,3.00
2019-03-17T03:50:33.580Z,2.75
2019-03-17T03:51:06.058Z,2.70
2019-03-17T03:51:38.566Z,2.90
2019-03-17T03:52:11.050Z,2.70
2019-03-17T03:52:43.569Z,2.30
2019-03-17T03:53:16.063Z,2.22
2019-03-17T03:53:48.656Z,2.70
2019-03-17T03:54:21.258Z,2.50
2019-03-17T03:54:53.752Z,2.65
2019-03-17T03:55:26.318Z,2.50
2019-03-17T03:55:58.817Z,2.40
2019-03-17T03:56:31.657Z,2.60
2019-03-17T03:57:04.130Z,2.45
2019-03-17T03:57:36.999Z,2.50
2019-03-17T03:58:09.865Z,2.58
2019-03-17T03:58:42.728Z,2.92
2019-03-17T03:59:15.431Z,2.65
2019-03-17T03:59:48.026Z,2.80
2019-03-17T04:00:20.503Z,2.67
2019-03-17T04:00:53.654Z,2.90
2019-03-17T04:01:26.488Z,2.45
2019-03-17T04:01:58.959Z,2.67
2019-03-17T04:02:31.448Z,2.40
2019-03-17T04:03:03.932Z,2.10
2019-03-17T04:03:36.414Z,2.30
2019-03-17T04:04:08.928Z,2.60
2019-03-17T04:04:41.393Z,2.62
2019-03-17T04:05:13.908Z,2.72
2019-03-17T04:05:46.382Z,3.12
2019-03-17T04:06:26.222Z,2.52
2019-03-17T04:06:53.839Z,3.10
2019-03-17T04:07:26.370Z,2.80
2019-03-17T04:07:59.549Z,2.65
2019-03-17T04:08:32.386Z,3.20
2019-03-17T04:09:06.574Z,2.30
2019-03-17T04:09:39.416Z,2.60
2019-03-17T04:10:12.011Z,2.70
2019-03-17T04:10:44.850Z,2.45
2019-03-17T04:11:17.808Z,2.20
2019-03-17T04:11:50.301Z,2.60
2019-03-17T04:12:22.787Z,3.12
2019-03-17T04:12:56.659Z,2.90
2019-03-17T04:13:29.143Z,2.75
2019-03-17T04:14:01.925Z,2.80
2019-03-17T04:14:34.785Z,2.77
2019-03-17T04:15:07.728Z,2.40
2019-03-17T04:15:40.213Z,2.22
2019-03-17T04:16:13.092Z,2.83
2019-03-17T04:16:45.581Z,2.58
2019-03-17T04:17:18.057Z,2.42
2019-03-17T04:17:50.927Z,3.12
2019-03-17T04:18:23.400Z,2.33
2019-03-17T04:18:56.179Z,2.45
2019-03-17T04:19:28.688Z,2.80
2019-03-17T04:20:01.186Z,2.50
2019-03-17T04:20:33.712Z,2.40
2019-03-17T04:21:06.186Z,2.80
2019-03-17T04:21:38.671Z,2.70
2019-03-17T04:22:11.558Z,2.37
2019-03-17T04:22:44.100Z,2.20
2019-03-17T04:23:16.844Z,2.92
2019-03-17T04:23:50.069Z,2.30
2019-03-17T04:24:22.560Z,3.08
2019-03-17T04:24:55.042Z,2.37
2019-03-17T04:25:27.531Z,2.67
2019-03-17T04:26:00.728Z,2.50
2019-03-17T04:26:33.951Z,2.60
2019-03-17T04:27:06.418Z,2.80
2019-03-17T04:27:38.939Z,2.83
2019-03-17T04:28:11.424Z,2.80
2019-03-17T04:28:44.243Z,2.67
2019-03-17T04:29:17.030Z,2.90
2019-03-17T04:29:49.502Z,2.72
2019-03-17T04:30:21.991Z,2.45
2019-03-17T04:30:54.513Z,3.05
2019-03-17T04:31:27.392Z,2.70
2019-03-17T04:31:59.878Z,3.17
2019-03-17T04:32:32.631Z,2.90
2019-03-17T04:33:05.121Z,2.62
2019-03-17T04:33:38.054Z,2.80
2019-03-17T04:34:10.887Z,2.65
2019-03-17T04:34:43.366Z,2.83
2019-03-17T04:35:15.847Z,2.77
2019-03-17T04:35:48.737Z,2.60
2019-03-17T04:36:21.960Z,2.60
2019-03-17T04:36:54.462Z,2.40
2019-03-17T04:37:27.302Z,2.52
2019-03-17T04:38:00.226Z,2.60
2019-03-17T04:38:33.091Z,2.42
2019-03-17T04:39:07.190Z,2.80
2019-03-17T04:39:40.365Z,3.10
2019-03-17T04:40:13.718Z,2.22
2019-03-17T04:40:46.194Z,2.70
2019-03-17T04:41:18.955Z,2.40
2019-03-17T04:41:51.497Z,2.67
2019-03-17T04:42:24.004Z,2.60
2019-03-17T04:42:56.493Z,2.40
2019-03-17T04:43:28.996Z,2.83
2019-03-17T04:44:01.777Z,2.60
2019-03-17T04:44:34.544Z,2.58
2019-03-17T04:45:07.230Z,2.72
2019-03-17T04:45:40.021Z,2.45
2019-03-17T04:46:12.483Z,2.87
2019-03-17T04:46:44.966Z,2.77
2019-03-17T04:47:17.453Z,2.40
2019-03-17T04:47:49.966Z,2.33
2019-03-17T04:48:22.442Z,2.30
2019-03-17T04:48:55.077Z,2.55
2019-03-17T04:49:27.621Z,2.40
2019-03-17T04:50:00.515Z,2.50
2019-03-17T04:50:33.011Z,2.27
2019-03-17T04:51:05.820Z,2.50
2019-03-17T04:51:38.859Z,2.50
2019-03-17T04:52:11.514Z,2.27
2019-03-17T04:52:44.118Z,2.67
2019-03-17T04:53:17.014Z,2.40
2019-03-17T04:53:49.492Z,2.60
2019-03-17T04:54:22.153Z,2.10
2019-03-17T04:54:54.649Z,2.35
2019-03-17T04:55:27.453Z,2.50
2019-03-17T04:55:59.940Z,2.50
2019-03-17T04:56:32.419Z,2.27
2019-03-17T04:57:04.909Z,2.45
2019-03-17T04:57:37.391Z,2.70
2019-03-17T04:58:09.868Z,2.55
2019-03-17T04:58:42.835Z,2.60
2019-03-17T04:59:15.898Z,2.65
2019-03-17T04:59:48.912Z,2.67
2019-03-17T05:00:21.543Z,2.65
2019-03-17T05:00:54.344Z,2.20
2019-03-17T05:01:26.865Z,2.33
2019-03-17T05:01:59.339Z,2.45
2019-03-17T05:02:32.203Z,2.60
2019-03-17T05:03:04.817Z,2.70
2019-03-17T05:03:37.483Z,2.83
2019-03-17T05:04:09.990Z,2.27
2019-03-17T05:04:42.482Z,2.40
2019-03-17T05:05:14.965Z,2.98
2019-03-17T05:05:47.455Z,2.60
2019-03-17T05:06:19.939Z,2.20
2019-03-17T05:06:58.460Z,2.40
2019-03-17T05:07:30.952Z,2.42
2019-03-17T05:08:03.450Z,2.15
2019-03-17T05:08:36.350Z,2.00
2019-03-17T05:09:08.852Z,2.27
2019-03-17T05:09:41.362Z,2.20
2019-03-17T05:10:14.245Z,3.05
2019-03-17T05:10:46.736Z,2.55
2019-03-17T05:11:19.239Z,2.25
2019-03-17T05:11:52.032Z,2.30
2019-03-17T05:12:25.127Z,2.33
2019-03-17T05:12:57.629Z,2.70
2019-03-17T05:13:30.119Z,2.70
2019-03-17T05:14:02.602Z,2.42
2019-03-17T05:14:35.362Z,2.58
2019-03-17T05:15:08.448Z,2.05
2019-03-17T05:15:40.942Z,2.40
2019-03-17T05:16:13.523Z,1.90
2019-03-17T05:16:46.020Z,3.00
2019-03-17T05:17:18.488Z,2.12
2019-03-17T05:17:51.068Z,2.50
2019-03-17T05:18:23.920Z,2.30
2019-03-17T05:18:56.399Z,2.67
2019-03-17T05:19:28.878Z,2.37
2019-03-17T05:20:01.380Z,2.22
2019-03-17T05:20:34.679Z,2.58
2019-03-17T05:21:08.064Z,2.70
2019-03-17T05:21:40.534Z,2.10
2019-03-17T05:22:13.037Z,2.40
2019-03-17T05:22:45.598Z,2.55
2019-03-17T05:23:18.111Z,2.33
2019-03-17T05:23:50.883Z,2.58
2019-03-17T05:24:23.729Z,2.17
2019-03-17T05:24:56.506Z,2.95
2019-03-17T05:25:28.982Z,2.20
2019-03-17T05:26:01.525Z,2.15
2019-03-17T05:26:34.274Z,2.30
2019-03-17T05:27:06.771Z,2.70
2019-03-17T05:27:39.610Z,2.10
2019-03-17T05:28:12.782Z,2.35
2019-03-17T05:28:45.199Z,1.95
2019-03-17T05:29:17.896Z,2.50
2019-03-17T05:29:50.383Z,1.98
2019-03-17T05:30:22.884Z,2.72
2019-03-17T05:30:55.376Z,2.15
2019-03-17T05:31:27.938Z,2.35
2019-03-17T05:32:00.501Z,1.90
2019-03-17T05:32:33.474Z,2.22
2019-03-17T05:33:05.968Z,1.90
2019-03-17T05:33:38.534Z,2.33
2019-03-17T05:34:11.336Z,2.22
2019-03-17T05:34:43.852Z,2.40
2019-03-17T05:35:16.345Z,2.33
2019-03-17T05:35:49.387Z,2.30
2019-03-17T05:36:21.870Z,2.10
2019-03-17T05:37:05.460Z,2.80
2019-03-17T05:37:28.672Z,2.08
2019-03-17T05:38:01.175Z,2.40
2019-03-17T05:38:33.956Z,2.20
2019-03-17T05:39:06.767Z,2.00
2019-03-17T05:39:40.044Z,2.70
2019-03-17T05:40:12.595Z,2.08
2019-03-17T05:40:45.070Z,2.60
2019-03-17T05:41:17.550Z,2.10
2019-03-17T05:41:50.022Z,2.33
2019-03-17T05:42:22.548Z,2.10
2019-03-17T05:42:55.531Z,2.25
2019-03-17T05:43:28.382Z,2.20
2019-03-17T05:44:00.878Z,2.40
2019-03-17T05:44:33.351Z,2.50
2019-03-17T05:45:06.615Z,2.45
2019-03-17T05:45:39.844Z,2.20
2019-03-17T05:46:12.734Z,2.00
2019-03-17T05:46:45.233Z,1.85
2019-03-17T05:47:17.830Z,1.95
2019-03-17T05:47:50.635Z,2.00
2019-03-17T05:48:23.516Z,2.17
2019-03-17T05:48:56.017Z,2.20
2019-03-17T05:49:28.500Z,2.52
2019-03-17T05:50:01.305Z,2.12
2019-03-17T05:50:34.484Z,2.50
2019-03-17T05:51:06.966Z,2.02
2019-03-17T05:51:39.781Z,2.02
2019-03-17T05:52:12.768Z,1.90
2019-03-17T05:52:45.265Z,2.40
2019-03-17T05:53:19.108Z,2.40
2019-03-17T05:53:51.909Z,2.35
2019-03-17T05:54:24.702Z,1.75
2019-03-17T05:54:57.184Z,2.02
2019-03-17T05:55:29.685Z,2.20
2019-03-17T05:56:02.463Z,2.10
2019-03-17T05:56:34.955Z,2.50
2019-03-17T05:57:07.442Z,2.50
2019-03-17T05:57:39.906Z,2.50
2019-03-17T05:58:12.612Z,2.00
2019-03-17T05:58:45.155Z,2.33
2019-03-17T05:59:19.674Z,2.17
2019-03-17T05:59:52.432Z,2.30
2019-03-17T06:00:24.924Z,1.77
2019-03-17T06:00:57.424Z,2.20
2019-03-17T06:01:30.365Z,2.47
2019-03-17T06:02:02.857Z,1.92
2019-03-17T06:02:35.334Z,2.02
2019-03-17T06:03:07.830Z,2.10
2019-03-17T06:03:41.039Z,1.90
2019-03-17T06:04:14.254Z,1.90
2019-03-17T06:04:47.072Z,1.70
2019-03-17T06:05:19.967Z,2.00
2019-03-17T06:05:52.820Z,1.90
2019-03-17T06:06:25.313Z,1.82
2019-03-17T06:06:58.330Z,2.00
2019-03-17T06:07:31.107Z,1.80
2019-03-17T06:08:03.978Z,2.10
2019-03-17T06:08:36.462Z,2.35
2019-03-17T06:09:09.243Z,1.90
2019-03-17T06:09:41.753Z,1.80
2019-03-17T06:10:14.542Z,2.25
2019-03-17T06:10:47.038Z,2.27
2019-03-17T06:11:19.987Z,1.82
2019-03-17T06:11:52.854Z,1.90
2019-03-17T06:12:25.335Z,1.80
2019-03-17T06:12:57.824Z,2.10
2019-03-17T06:13:30.764Z,2.10
2019-03-17T06:14:03.256Z,1.50
2019-03-17T06:14:35.754Z,2.08
2019-03-17T06:15:09.120Z,2.00
2019-03-17T06:15:41.606Z,1.82
2019-03-17T06:16:14.095Z,1.87
2019-03-17T06:16:47.185Z,2.00
2019-03-17T06:17:19.670Z,1.90
2019-03-17T06:17:52.174Z,1.65
2019-03-17T06:18:24.635Z,1.80
2019-03-17T06:18:57.132Z,1.90
2019-03-17T06:19:29.607Z,1.77
2019-03-17T06:20:02.839Z,1.90
2019-03-17T06:20:35.362Z,1.70
2019-03-17T06:21:08.162Z,1.98
2019-03-17T06:21:41.068Z,2.10
2019-03-17T06:22:13.546Z,2.08
2019-03-17T06:22:46.401Z,2.20
2019-03-17T06:23:18.885Z,1.90
2019-03-17T06:23:51.386Z,2.00
2019-03-17T06:24:23.872Z,1.70
2019-03-17T06:24:56.729Z,1.80
2019-03-17T06:25:29.216Z,1.70
2019-03-17T06:26:01.760Z,2.20
2019-03-17T06:26:34.260Z,2.10
2019-03-17T06:27:06.758Z,1.85
2019-03-17T06:27:39.244Z,2.08
2019-03-17T06:28:11.866Z,2.08
2019-03-17T06:28:44.775Z,1.92
2019-03-17T06:29:17.780Z,1.90
2019-03-17T06:29:50.274Z,1.70
2019-03-17T06:30:22.766Z,2.10
2019-03-17T06:30:55.258Z,1.90
2019-03-17T06:31:27.784Z,1.75
2019-03-17T06:32:00.464Z,1.77
2019-03-17T06:32:32.988Z,2.10
2019-03-17T06:33:05.490Z,1.77
2019-03-17T06:33:37.964Z,1.60
2019-03-17T06:34:10.455Z,1.62
2019-03-17T06:34:43.290Z,1.95
2019-03-17T06:35:15.780Z,1.75
2019-03-17T06:35:48.258Z,1.80
2019-03-17T06:36:20.739Z,1.77
2019-03-17T06:36:53.736Z,1.75
2019-03-17T06:37:31.030Z,1.70
2019-03-17T06:38:00.528Z,1.75
2019-03-17T06:38:33.014Z,1.62
2019-03-17T06:39:06.783Z,1.62
2019-03-17T06:39:39.262Z,1.92
2019-03-17T06:40:11.558Z,1.80
2019-03-17T06:40:44.022Z,1.45
2019-03-17T06:41:16.519Z,1.50
2019-03-17T06:41:49.288Z,1.50
2019-03-17T06:42:21.794Z,1.72
2019-03-17T06:42:56.169Z,1.90
2019-03-17T06:43:28.576Z,1.50
2019-03-17T06:44:01.063Z,1.70
2019-03-17T06:44:33.552Z,1.90
2019-03-17T06:45:06.893Z,1.60
2019-03-17T06:45:39.313Z,1.42
2019-03-17T06:46:11.812Z,1.70
2019-03-17T06:46:44.298Z,1.60
2019-03-17T06:47:16.774Z,1.52
2019-03-17T06:47:49.293Z,1.65
2019-03-17T06:48:22.084Z,1.90
2019-03-17T06:48:55.268Z,1.70
2019-03-17T06:49:27.764Z,1.50
2019-03-17T06:50:00.391Z,1.70
2019-03-17T06:50:32.848Z,1.50
2019-03-17T06:51:05.337Z,1.60
2019-03-17T06:51:37.832Z,1.32
2019-03-17T06:52:10.940Z,1.60
2019-03-17T06:52:43.426Z,1.60
2019-03-17T06:53:16.112Z,1.60
2019-03-17T06:53:56.205Z,1.80
2019-03-17T06:54:22.866Z,1.40
2019-03-17T06:54:59.053Z,1.30
2019-03-17T06:55:32.261Z,1.60
2019-03-17T06:56:06.122Z,1.80
2019-03-17T06:56:38.571Z,1.57
2019-03-17T06:57:11.379Z,1.65
2019-03-17T06:57:43.864Z,1.60
2019-03-17T06:58:16.359Z,2.00
2019-03-17T06:58:48.884Z,1.70
2019-03-17T06:59:21.371Z,1.77
2019-03-17T06:59:54.138Z,1.60
2019-03-17T07:00:26.987Z,1.70
2019-03-17T07:00:59.837Z,1.85
2019-03-17T07:01:32.656Z,1.60
2019-03-17T07:02:05.428Z,1.50
2019-03-17T07:02:38.273Z,1.60
2019-03-17T07:03:11.080Z,1.67
2019-03-17T07:03:43.598Z,1.70
2019-03-17T07:04:16.554Z,1.65
2019-03-17T07:04:49.036Z,1.98
2019-03-17T07:05:21.532Z,1.70
2019-03-17T07:05:54.040Z,2.17
2019-03-17T07:06:27.174Z,1.95
2019-03-17T07:06:59.660Z,1.70
2019-03-17T07:07:43.225Z,1.98
2019-03-17T07:08:08.686Z,1.62
2019-03-17T07:08:41.315Z,1.45
2019-03-17T07:09:14.095Z,1.67
2019-03-17T07:09:48.080Z,1.82
2019-03-17T07:10:20.704Z,1.65
2019-03-17T07:10:53.180Z,1.75
2019-03-17T07:11:26.104Z,1.80
2019-03-17T07:11:58.604Z,1.45
2019-03-17T07:12:31.803Z,1.70
2019-03-17T07:13:04.286Z,1.60
2019-03-17T07:13:36.770Z,1.80
2019-03-17T07:14:09.582Z,1.70
2019-03-17T07:14:42.528Z,1.70
2019-03-17T07:15:15.112Z,1.57
2019-03-17T07:15:47.554Z,1.50
2019-03-17T07:16:20.192Z,1.35